Time;durP1;ratioP1;P1;durP2;ratioP2;P2;SDS_P1;SDS_P2;PMS_P1;PMS_P2;Temp;Humidity;BMP_temperature;BMP_pressure;BME280_temperature;BME280_humidity;BME280_pressure;Samples;Min_cycle;Max_cycle;Signal;HPM_P1;HPM_P2
2023/05/23 00:01:39;;;;;;;16.10;11.77;;;;;;;;;;5032774;28;20279;-77
2023/05/23 00:04:07;;;;;;;16.10;12.47;;;;;;;;;;5032267;28;20285;-77
2023/05/23 00:06:37;;;;;;;18.23;12.17;;;;;;;;;;5032382;28;20200;-77
2023/05/23 00:09:04;;;;;;;19.00;12.80;;;;;;;;;;5032401;28;20259;-78
2023/05/23 00:11:36;;;;;;;16.73;12.60;;;;;;;;;;5031930;28;20323;-77
2023/05/23 00:14:03;;;;;;;15.90;12.20;;;;;;;;;;5035956;28;20196;-77
2023/05/23 00:16:31;;;;;;;15.73;12.50;;;;;;;;;;5052058;28;20230;-78
2023/05/23 00:18:58;;;;;;;15.47;12.53;;;;;;;;;;5052268;28;20199;-77
2023/05/23 00:21:26;;;;;;;21.90;13.90;;;;;;;;;;5051929;28;20202;-77
2023/05/23 00:23:55;;;;;;;16.37;13.60;;;;;;;;;;5051906;28;20581;-77
2023/05/23 00:26:23;;;;;;;20.93;13.43;;;;;;;;;;5051831;28;20214;-78
2023/05/23 00:28:50;;;;;;;20.70;14.00;;;;;;;;;;5051374;28;20298;-78
2023/05/23 00:31:17;;;;;;;17.80;13.83;;;;;;;;;;5050898;28;20277;-77
2023/05/23 00:33:44;;;;;;;19.80;14.17;;;;;;;;;;5051823;28;20235;-77
2023/05/23 00:36:12;;;;;;;19.00;14.50;;;;;;;;;;5051808;28;20226;-77
2023/05/23 00:38:39;;;;;;;21.33;14.07;;;;;;;;;;5051501;28;20200;-78
2023/05/23 00:41:07;;;;;;;20.43;14.67;;;;;;;;;;5051895;28;20195;-79
2023/05/23 00:43:35;;;;;;;19.27;14.70;;;;;;;;;;5051422;28;20733;-78
2023/05/23 00:46:02;;;;;;;20.07;13.77;;;;;;;;;;5034697;28;20200;-77
2023/05/23 00:48:30;;;;;;;18.63;14.00;;;;;;;;;;5031740;28;20200;-78
2023/05/23 00:50:57;;;;;;;18.43;14.33;;;;;;;;;;5031363;28;20236;-78
2023/05/23 00:53:25;;;;;;;20.93;14.60;;;;;;;;;;5031675;28;20263;-78
2023/05/23 00:55:52;;;;;;;20.50;14.67;;;;;;;;;;5031252;28;20235;-77
2023/05/23 00:58:21;;;;;;;19.97;15.33;;;;;;;;;;5031323;28;20296;-77
2023/05/23 01:00:49;;;;;;;22.33;14.70;;;;;;;;;;5031438;28;20207;-78
2023/05/23 01:03:17;;;;;;;20.10;14.90;;;;;;;;;;5031557;28;20203;-79
2023/05/23 01:05:44;;;;;;;20.10;15.13;;;;;;;;;;5031524;28;20672;-78
2023/05/23 01:08:11;;;;;;;20.20;14.60;;;;;;;;;;5031185;28;20196;-77
2023/05/23 01:10:39;;;;;;;21.37;15.00;;;;;;;;;;5030837;28;20232;-77
2023/05/23 01:13:14;;;;;;;22.30;15.10;;;;;;;;;;5031375;28;20592;-79
2023/05/23 01:15:44;;;;;;;19.93;15.07;;;;;;;;;;5049411;28;20641;-78
2023/05/23 01:18:14;;;;;;;19.67;14.50;;;;;;;;;;5051008;28;20258;-78
2023/05/23 01:20:45;;;;;;;21.20;14.90;;;;;;;;;;5051054;28;20379;-77
2023/05/23 01:23:33;;;;;;;18.20;13.77;;;;;;;;;;5051660;28;20204;-77
2023/05/23 01:26:15;;;;;;;18.57;14.47;;;;;;;;;;4988808;28;20667;-78
2023/05/23 01:28:46;;;;;;;21.30;14.10;;;;;;;;;;4989843;28;20691;-77
2023/05/23 01:31:14;;;;;;;18.17;14.43;;;;;;;;;;4989255;28;20201;-77
2023/05/23 01:33:41;;;;;;;19.63;14.97;;;;;;;;;;4989349;28;20336;-79
2023/05/23 01:36:09;;;;;;;18.43;13.80;;;;;;;;;;4989374;28;20290;-78
2023/05/23 01:38:36;;;;;;;22.57;14.70;;;;;;;;;;4989751;28;20313;-77
2023/05/23 01:41:03;;;;;;;16.87;13.60;;;;;;;;;;4989098;28;20226;-77
2023/05/23 01:43:31;;;;;;;19.63;14.37;;;;;;;;;;4991676;28;20288;-78
2023/05/23 01:46:00;;;;;;;21.23;15.40;;;;;;;;;;4993092;28;20197;-78
2023/05/23 01:48:28;;;;;;;17.83;14.00;;;;;;;;;;4993447;28;20734;-78
2023/05/23 01:50:56;;;;;;;20.77;14.27;;;;;;;;;;4984031;28;20743;-78
2023/05/23 01:53:24;;;;;;;20.80;14.73;;;;;;;;;;4963066;28;20262;-77
2023/05/23 01:55:52;;;;;;;19.63;14.67;;;;;;;;;;4972946;28;20289;-78
2023/05/23 01:58:20;;;;;;;19.80;14.90;;;;;;;;;;4973917;28;20198;-78
2023/05/23 02:00:47;;;;;;;21.43;14.80;;;;;;;;;;4973541;28;20199;-77
2023/05/23 02:03:15;;;;;;;19.00;14.47;;;;;;;;;;5009910;28;20294;-77
2023/05/23 02:05:43;;;;;;;19.57;14.57;;;;;;;;;;5034592;28;20201;-77
2023/05/23 02:08:10;;;;;;;20.57;15.03;;;;;;;;;;5034664;28;20288;-77
2023/05/23 02:10:37;;;;;;;18.47;14.27;;;;;;;;;;5034087;28;20291;-78
2023/05/23 02:13:04;;;;;;;20.20;14.17;;;;;;;;;;5034352;28;20708;-77
2023/05/23 02:15:31;;;;;;;18.40;14.07;;;;;;;;;;5034264;28;20209;-78
2023/05/23 02:17:58;;;;;;;19.00;14.17;;;;;;;;;;5034650;28;20292;-78
2023/05/23 02:20:27;;;;;;;18.73;14.20;;;;;;;;;;5034018;28;20291;-78
2023/05/23 02:22:54;;;;;;;17.97;13.83;;;;;;;;;;5034625;28;20776;-78
2023/05/23 02:25:21;;;;;;;21.20;13.80;;;;;;;;;;5033584;28;20741;-77
2023/05/23 02:27:48;;;;;;;21.10;14.63;;;;;;;;;;5034375;28;20651;-77
2023/05/23 02:30:16;;;;;;;19.17;13.97;;;;;;;;;;5034240;28;20231;-77
2023/05/23 02:32:43;;;;;;;23.50;15.00;;;;;;;;;;5033775;28;20319;-77
2023/05/23 02:35:10;;;;;;;20.50;13.40;;;;;;;;;;5033982;28;20224;-77
2023/05/23 02:37:40;;;;;;;17.90;14.30;;;;;;;;;;5033758;28;20244;-78
2023/05/23 02:40:08;;;;;;;18.90;13.50;;;;;;;;;;5034232;28;20327;-78
2023/05/23 02:42:35;;;;;;;21.63;14.33;;;;;;;;;;5033851;28;20200;-78
2023/05/23 02:45:02;;;;;;;19.47;14.57;;;;;;;;;;5033762;28;20751;-77
2023/05/23 02:47:29;;;;;;;20.10;13.73;;;;;;;;;;5033579;28;20287;-77
2023/05/23 02:49:56;;;;;;;20.20;14.60;;;;;;;;;;5033702;28;20287;-77
2023/05/23 02:52:23;;;;;;;19.93;14.07;;;;;;;;;;5033478;28;20322;-77
2023/05/23 02:54:52;;;;;;;20.67;14.70;;;;;;;;;;5032469;28;20286;-78
2023/05/23 02:57:19;;;;;;;23.30;14.63;;;;;;;;;;5033221;28;20566;-78
2023/05/23 02:59:46;;;;;;;23.10;14.87;;;;;;;;;;5033892;28;20203;-78
2023/05/23 03:02:13;;;;;;;21.43;14.20;;;;;;;;;;5033190;28;20240;-77
2023/05/23 03:04:41;;;;;;;22.33;15.27;;;;;;;;;;5033089;28;20224;-77
2023/05/23 03:07:10;;;;;;;21.00;15.07;;;;;;;;;;5033561;28;20231;-77
2023/05/23 03:09:37;;;;;;;21.50;15.23;;;;;;;;;;5033230;28;20193;-78
2023/05/23 03:12:06;;;;;;;20.30;15.33;;;;;;;;;;5033351;28;20236;-77
2023/05/23 03:14:33;;;;;;;21.00;14.47;;;;;;;;;;5041784;28;20204;-78
2023/05/23 03:17:02;;;;;;;21.60;14.47;;;;;;;;;;5053213;28;20320;-76
2023/05/23 03:19:29;;;;;;;20.57;14.67;;;;;;;;;;5053273;28;20205;-77
2023/05/23 03:21:57;;;;;;;22.97;14.17;;;;;;;;;;5052961;28;20636;-77
2023/05/23 03:24:24;;;;;;;21.63;15.53;;;;;;;;;;5053031;28;20687;-77
2023/05/23 03:26:51;;;;;;;21.83;15.93;;;;;;;;;;5052983;28;20203;-77
2023/05/23 03:29:20;;;;;;;21.63;15.47;;;;;;;;;;5053428;28;20287;-78
2023/05/23 03:31:47;;;;;;;20.43;15.13;;;;;;;;;;5052816;28;20580;-77
2023/05/23 03:34:15;;;;;;;20.53;15.10;;;;;;;;;;5052653;28;20319;-78
2023/05/23 03:36:42;;;;;;;20.87;15.40;;;;;;;;;;5052334;28;20257;-76
2023/05/23 03:39:09;;;;;;;18.83;14.80;;;;;;;;;;5052960;28;20205;-78
2023/05/23 03:41:36;;;;;;;19.63;14.87;;;;;;;;;;5052456;28;20192;-77
2023/05/23 03:44:04;;;;;;;22.10;14.67;;;;;;;;;;5052440;28;20290;-77
2023/05/23 03:46:32;;;;;;;23.43;14.17;;;;;;;;;;5053092;28;20195;-77
2023/05/23 03:48:59;;;;;;;19.40;14.67;;;;;;;;;;5052704;28;20326;-77
2023/05/23 03:51:27;;;;;;;20.53;14.83;;;;;;;;;;5051933;28;20299;-77
2023/05/23 03:53:54;;;;;;;22.80;14.67;;;;;;;;;;5052187;28;20263;-78
2023/05/23 03:56:21;;;;;;;20.17;14.43;;;;;;;;;;5052523;28;20228;-78
2023/05/23 03:58:48;;;;;;;21.67;14.60;;;;;;;;;;5052124;28;20674;-77
2023/05/23 04:01:16;;;;;;;21.17;15.00;;;;;;;;;;5052158;28;20932;-77
2023/05/23 04:03:45;;;;;;;22.30;14.93;;;;;;;;;;5052368;28;20226;-78
2023/05/23 04:06:12;;;;;;;20.43;15.33;;;;;;;;;;5051689;28;20206;-77
2023/05/23 04:08:40;;;;;;;20.50;15.23;;;;;;;;;;5052303;28;20231;-78
2023/05/23 04:11:08;;;;;;;20.23;14.67;;;;;;;;;;5052587;28;20196;-76
2023/05/23 04:13:35;;;;;;;25.77;15.60;;;;;;;;;;5051488;28;20318;-77
2023/05/23 04:16:04;;;;;;;21.70;15.27;;;;;;;;;;5051662;28;20196;-77
2023/05/23 04:18:32;;;;;;;21.97;14.97;;;;;;;;;;5052406;28;20199;-77
2023/05/23 04:21:01;;;;;;;21.83;14.77;;;;;;;;;;5051327;28;20206;-77
2023/05/23 04:23:28;;;;;;;22.07;14.80;;;;;;;;;;5051953;28;20198;-77
2023/05/23 04:25:56;;;;;;;22.63;14.90;;;;;;;;;;5051593;28;20203;-77
2023/05/23 04:28:23;;;;;;;20.63;14.90;;;;;;;;;;5052036;28;20226;-78
2023/05/23 04:30:50;;;;;;;18.10;14.23;;;;;;;;;;5051660;28;20647;-78
2023/05/23 04:33:18;;;;;;;24.50;16.00;;;;;;;;;;5051355;28;20266;-77
2023/05/23 04:35:45;;;;;;;19.87;14.13;;;;;;;;;;5051582;28;20257;-77
2023/05/23 04:38:14;;;;;;;23.00;14.50;;;;;;;;;;5051714;28;20200;-77
2023/05/23 04:40:41;;;;;;;21.07;13.90;;;;;;;;;;5051482;28;20231;-77
2023/05/23 04:43:13;;;;;;;19.43;14.50;;;;;;;;;;5051921;28;20210;-77
2023/05/23 04:45:41;;;;;;;19.53;13.53;;;;;;;;;;5051395;28;20192;-77
2023/05/23 04:48:08;;;;;;;17.80;13.13;;;;;;;;;;5051254;28;20204;-77
2023/05/23 04:50:36;;;;;;;20.37;13.10;;;;;;;;;;5051712;28;20224;-77
2023/05/23 04:53:03;;;;;;;20.77;13.33;;;;;;;;;;5051830;28;20599;-78
2023/05/23 04:55:32;;;;;;;22.17;13.93;;;;;;;;;;5050933;28;20223;-77
2023/05/23 04:58:00;;;;;;;17.97;13.10;;;;;;;;;;5051275;28;20191;-77
2023/05/23 05:00:29;;;;;;;18.67;12.97;;;;;;;;;;5051064;28;20215;-77
2023/05/23 05:02:56;;;;;;;19.07;13.80;;;;;;;;;;5050868;28;20206;-78
2023/05/23 05:05:23;;;;;;;18.67;13.27;;;;;;;;;;5051152;28;20299;-77
2023/05/23 05:07:50;;;;;;;18.03;12.87;;;;;;;;;;5047532;28;20303;-76
2023/05/23 05:10:17;;;;;;;16.80;13.07;;;;;;;;;;5030462;28;20283;-76
2023/05/23 05:12:48;;;;;;;15.93;11.70;;;;;;;;;;5030969;28;20319;-76
2023/05/23 05:15:16;;;;;;;21.37;13.03;;;;;;;;;;5040681;28;20196;-77
2023/05/23 05:17:43;;;;;;;17.40;11.47;;;;;;;;;;5044052;28;20207;-75
2023/05/23 05:20:11;;;;;;;15.50;11.00;;;;;;;;;;5029315;28;20254;-76
2023/05/23 05:22:39;;;;;;;14.70;10.83;;;;;;;;;;5028786;28;20196;-76
2023/05/23 05:25:06;;;;;;;15.63;10.53;;;;;;;;;;5029937;28;20201;-75
2023/05/23 05:27:34;;;;;;;17.00;10.73;;;;;;;;;;5029918;28;20219;-76
2023/05/23 05:30:04;;;;;;;14.63;9.67;;;;;;;;;;5028800;28;20660;-76
2023/05/23 05:32:32;;;;;;;16.63;9.40;;;;;;;;;;5029391;28;20255;-77
2023/05/23 05:35:00;;;;;;;14.20;9.03;;;;;;;;;;5030877;28;20266;-77
2023/05/23 05:37:27;;;;;;;15.60;9.20;;;;;;;;;;5028892;28;20212;-78
2023/05/23 05:39:54;;;;;;;11.93;7.93;;;;;;;;;;5025933;28;20262;-77
2023/05/23 05:42:22;;;;;;;13.23;8.00;;;;;;;;;;5027390;28;20650;-75
2023/05/23 05:44:50;;;;;;;9.87;8.00;;;;;;;;;;5030538;28;20207;-76
2023/05/23 05:47:18;;;;;;;12.27;7.80;;;;;;;;;;5028836;28;20295;-78
2023/05/23 05:49:45;;;;;;;11.37;7.40;;;;;;;;;;5030391;28;20207;-79
2023/05/23 05:52:13;;;;;;;8.70;6.97;;;;;;;;;;5025225;28;20704;-79
2023/05/23 05:54:40;;;;;;;10.93;6.83;;;;;;;;;;5027234;28;20270;-78
2023/05/23 05:57:07;;;;;;;12.93;6.60;;;;;;;;;;5029051;28;20658;-78
2023/05/23 05:59:34;;;;;;;9.33;6.53;;;;;;;;;;5027413;28;20767;-79
2023/05/23 06:02:01;;;;;;;11.00;6.63;;;;;;;;;;5025401;28;20250;-78
2023/05/23 06:04:30;;;;;;;12.37;6.43;;;;;;;;;;5027357;28;20240;-79
2023/05/23 06:06:57;;;;;;;10.27;6.37;;;;;;;;;;5022488;28;20667;-79
2023/05/23 06:09:24;;;;;;;9.40;6.20;;;;;;;;;;5015807;28;20255;-79
2023/05/23 06:11:52;;;;;;;12.03;6.30;;;;;;;;;;5020966;28;20196;-79
2023/05/23 06:14:19;;;;;;;12.67;6.20;;;;;;;;;;5020163;28;20228;-79
2023/05/23 06:16:46;;;;;;;9.43;5.53;;;;;;;;;;5021063;28;20280;-79
2023/05/23 06:19:13;;;;;;;9.03;5.40;;;;;;;;;;5017210;28;20307;-79
2023/05/23 06:21:42;;;;;;;5.75;4.97;;;;;;;;;;5013206;28;20296;-78
2023/05/23 06:24:09;;;;;;;8.77;5.70;;;;;;;;;;5036002;28;20250;-79
2023/05/23 06:26:37;;;;;;;8.77;5.43;;;;;;;;;;5041139;28;20724;-77
2023/05/23 06:29:04;;;;;;;10.63;5.10;;;;;;;;;;5030103;28;20201;-78
2023/05/23 06:31:32;;;;;;;9.68;5.53;;;;;;;;;;5047155;28;20287;-78
2023/05/23 06:33:59;;;;;;;8.82;5.38;;;;;;;;;;5053070;28;20318;-78
2023/05/23 06:36:26;;;;;;;8.57;5.45;;;;;;;;;;5015475;28;20197;-78
2023/05/23 06:38:55;;;;;;;7.57;5.30;;;;;;;;;;5032925;28;20822;-79
2023/05/23 06:41:22;;;;;;;9.50;5.63;;;;;;;;;;5033480;28;20317;-78
2023/05/23 06:43:49;;;;;;;9.30;5.90;;;;;;;;;;5032853;28;20228;-79
2023/05/23 06:46:16;;;;;;;8.70;5.57;;;;;;;;;;5033545;28;20271;-79
2023/05/23 06:48:44;;;;;;;10.02;5.35;;;;;;;;;;5033029;28;20287;-78
2023/05/23 06:51:11;;;;;;;9.30;5.70;;;;;;;;;;5032674;28;20232;-79
2023/05/23 06:53:38;;;;;;;10.88;5.65;;;;;;;;;;5033032;28;20811;-78
2023/05/23 06:56:07;;;;;;;8.02;5.32;;;;;;;;;;5033052;28;20207;-77
2023/05/23 06:58:34;;;;;;;8.35;5.22;;;;;;;;;;5033161;28;20283;-78
2023/05/23 07:01:01;;;;;;;12.55;5.28;;;;;;;;;;5032597;28;20295;-79
2023/05/23 07:03:28;;;;;;;9.65;5.72;;;;;;;;;;5032618;28;20234;-78
2023/05/23 07:05:55;;;;;;;9.13;5.68;;;;;;;;;;5033767;28;20299;-78
2023/05/23 07:08:23;;;;;;;7.93;5.38;;;;;;;;;;5033104;28;20204;-78
2023/05/23 07:10:50;;;;;;;7.95;5.70;;;;;;;;;;5032778;28;20299;-78
2023/05/23 07:13:18;;;;;;;9.00;5.95;;;;;;;;;;5032379;28;20318;-79
2023/05/23 07:15:45;;;;;;;8.63;5.97;;;;;;;;;;5051244;28;20204;-79
2023/05/23 07:18:13;;;;;;;8.02;6.20;;;;;;;;;;5052970;28;20224;-78
2023/05/23 07:20:40;;;;;;;10.13;6.00;;;;;;;;;;5053099;28;20200;-79
2023/05/23 07:23:07;;;;;;;8.68;6.03;;;;;;;;;;5052759;28;20290;-77
2023/05/23 07:25:34;;;;;;;8.73;6.30;;;;;;;;;;5052437;28;20295;-78
2023/05/23 07:28:02;;;;;;;9.20;6.30;;;;;;;;;;5044935;28;20279;-77
2023/05/23 07:30:30;;;;;;;8.32;5.93;;;;;;;;;;5032887;28;20288;-78
2023/05/23 07:32:57;;;;;;;10.40;6.43;;;;;;;;;;5032908;28;20248;-79
2023/05/23 07:35:25;;;;;;;11.38;6.82;;;;;;;;;;5028696;28;20343;-78
2023/05/23 07:37:52;;;;;;;9.07;6.70;;;;;;;;;;5032592;28;20216;-78
2023/05/23 07:40:19;;;;;;;7.85;6.70;;;;;;;;;;5032009;28;20294;-79
2023/05/23 07:42:46;;;;;;;12.23;7.25;;;;;;;;;;5032029;28;20655;-78
2023/05/23 07:45:14;;;;;;;10.43;6.38;;;;;;;;;;5032034;28;20838;-78
2023/05/23 07:47:43;;;;;;;10.88;7.40;;;;;;;;;;5032372;28;20683;-78
2023/05/23 07:50:10;;;;;;;10.02;7.30;;;;;;;;;;5029401;28;20197;-78
2023/05/23 07:52:37;;;;;;;10.50;6.45;;;;;;;;;;5021346;28;20292;-79
2023/05/23 07:55:05;;;;;;;8.82;7.53;;;;;;;;;;5012758;28;20728;-78
2023/05/23 07:57:32;;;;;;;11.45;8.07;;;;;;;;;;5031070;28;20653;-78
2023/05/23 08:00:00;;;;;;;10.57;8.30;;;;;;;;;;5032152;28;20279;-79
2023/05/23 08:02:27;;;;;;;13.20;8.95;;;;;;;;;;5031930;28;20192;-79
2023/05/23 08:04:55;;;;;;;10.90;8.48;;;;;;;;;;5032105;28;20291;-78
2023/05/23 08:07:22;;;;;;;14.95;8.90;;;;;;;;;;5032299;28;20200;-78
2023/05/23 08:09:50;;;;;;;14.98;8.98;;;;;;;;;;5031799;28;20292;-78
2023/05/23 08:12:17;;;;;;;12.02;8.93;;;;;;;;;;5031384;28;20283;-78
2023/05/23 08:14:44;;;;;;;12.98;9.90;;;;;;;;;;5031558;28;20311;-78
2023/05/23 08:17:11;;;;;;;14.40;9.75;;;;;;;;;;5031439;28;20279;-78
2023/05/23 08:19:39;;;;;;;11.30;8.97;;;;;;;;;;5032186;28;20201;-78
2023/05/23 08:22:07;;;;;;;13.80;9.70;;;;;;;;;;5031514;28;20235;-78
2023/05/23 08:24:34;;;;;;;11.63;10.03;;;;;;;;;;5031774;28;20287;-78
2023/05/23 08:27:02;;;;;;;12.47;9.43;;;;;;;;;;5031144;28;20283;-77
2023/05/23 08:29:29;;;;;;;12.67;9.57;;;;;;;;;;5031266;28;20284;-78
2023/05/23 08:31:56;;;;;;;22.30;10.83;;;;;;;;;;5031291;28;20654;-78
2023/05/23 08:34:23;;;;;;;13.43;9.77;;;;;;;;;;5031676;28;20310;-77
2023/05/23 08:36:51;;;;;;;13.07;9.57;;;;;;;;;;5031286;28;20243;-77
2023/05/23 08:39:19;;;;;;;13.73;10.60;;;;;;;;;;5031216;28;20220;-77
2023/05/23 08:41:47;;;;;;;13.87;10.17;;;;;;;;;;5030929;28;20232;-78
2023/05/23 08:44:14;;;;;;;14.00;10.07;;;;;;;;;;5031596;28;20283;-78
2023/05/23 08:46:48;;;;;;;14.80;10.33;;;;;;;;;;5031171;28;20295;-77
2023/05/23 08:49:16;;;;;;;14.40;10.07;;;;;;;;;;5029426;28;20220;-78
2023/05/23 08:51:44;;;;;;;13.97;10.60;;;;;;;;;;5030092;28;20729;-77
2023/05/23 08:54:12;;;;;;;15.07;10.80;;;;;;;;;;5030546;28;20326;-78
2023/05/23 08:56:42;;;;;;;15.53;11.20;;;;;;;;;;5030532;28;20203;-78
2023/05/23 08:59:10;;;;;;;12.83;9.93;;;;;;;;;;5031295;28;20219;-78
2023/05/23 09:01:40;;;;;;;15.43;11.23;;;;;;;;;;5030917;28;20223;-78
2023/05/23 09:04:07;;;;;;;11.90;10.17;;;;;;;;;;5030826;28;20231;-78
2023/05/23 09:06:35;;;;;;;14.60;11.13;;;;;;;;;;5031319;28;20235;-77
2023/05/23 09:09:03;;;;;;;13.33;10.83;;;;;;;;;;5031079;28;20287;-78
2023/05/23 09:11:33;;;;;;;20.20;11.93;;;;;;;;;;5030386;28;20292;-78
2023/05/23 09:14:03;;;;;;;15.10;11.17;;;;;;;;;;5034220;28;20593;-78
2023/05/23 09:16:34;;;;;;;15.40;11.40;;;;;;;;;;5051257;28;20195;-78
2023/05/23 09:19:10;;;;;;;17.93;11.20;;;;;;;;;;5051065;28;20246;-78
2023/05/23 09:21:38;;;;;;;15.53;10.33;;;;;;;;;;5050444;28;20201;-79
2023/05/23 09:24:06;;;;;;;15.83;10.93;;;;;;;;;;5050316;28;20295;-76
2023/05/23 09:26:33;;;;;;;17.50;11.57;;;;;;;;;;5050516;28;20763;-76
2023/05/23 09:29:02;;;;;;;14.10;11.20;;;;;;;;;;5043083;28;20201;-78
2023/05/23 09:31:29;;;;;;;15.23;11.53;;;;;;;;;;5018564;28;20209;-78
2023/05/23 09:33:56;;;;;;;16.27;11.07;;;;;;;;;;5029694;28;20236;-78
2023/05/23 09:36:23;;;;;;;17.50;11.60;;;;;;;;;;5030505;28;20243;-79
2023/05/23 09:38:51;;;;;;;16.30;11.83;;;;;;;;;;5030225;28;20677;-79
2023/05/23 09:41:20;;;;;;;15.17;11.37;;;;;;;;;;5024276;28;20604;-77
2023/05/23 09:43:51;;;;;;;16.73;11.03;;;;;;;;;;5029863;28;20744;-76
2023/05/23 09:46:20;;;;;;;16.90;11.27;;;;;;;;;;5030712;28;20232;-75
2023/05/23 09:48:47;;;;;;;17.40;11.17;;;;;;;;;;5030074;28;20194;-77
2023/05/23 09:51:15;;;;;;;14.97;11.67;;;;;;;;;;5030387;28;20231;-77
2023/05/23 09:53:42;;;;;;;13.67;11.00;;;;;;;;;;5029754;28;20717;-77
2023/05/23 09:56:11;;;;;;;12.83;10.60;;;;;;;;;;5030523;28;20324;-77
2023/05/23 09:58:39;;;;;;;16.27;11.23;;;;;;;;;;5030710;28;20196;-76
2023/05/23 10:01:07;;;;;;;14.50;11.97;;;;;;;;;;5029844;28;20204;-77
2023/05/23 10:03:39;;;;;;;15.60;11.10;;;;;;;;;;5031388;28;20223;-76
2023/05/23 10:06:09;;;;;;;16.63;11.50;;;;;;;;;;5034201;28;20232;-76
2023/05/23 10:08:37;;;;;;;16.10;11.37;;;;;;;;;;5033532;28;20624;-77
2023/05/23 10:11:35;;;;;;;17.10;11.53;;;;;;;;;;5033483;28;20247;-77
2023/05/23 10:14:03;;;;;;;14.13;10.93;;;;;;;;;;5033554;28;20661;-76
2023/05/23 10:16:34;;;;;;;16.63;11.03;;;;;;;;;;5034227;28;20663;-76
2023/05/23 10:19:07;;;;;;;15.90;11.87;;;;;;;;;;5027719;28;20666;-77
2023/05/23 10:21:37;;;;;;;18.77;12.38;;;;;;;;;;5020923;28;20212;-76
2023/05/23 10:24:05;;;;;;;16.20;12.20;;;;;;;;;;5024602;28;20197;-76
2023/05/23 10:26:32;;;;;;;18.90;12.68;;;;;;;;;;5023373;28;20250;-77
2023/05/23 10:29:01;;;;;;;16.43;12.50;;;;;;;;;;5025085;28;20197;-75
2023/05/23 10:31:28;;;;;;;13.80;11.70;;;;;;;;;;5024211;28;20247;-76
2023/05/23 10:33:59;;;;;;;15.40;12.23;;;;;;;;;;5022601;28;21060;-76
2023/05/23 10:36:33;;;;;;;17.17;12.25;;;;;;;;;;5023978;28;20257;-77
2023/05/23 10:39:05;;;;;;;20.05;12.30;;;;;;;;;;5023678;28;20196;-76
2023/05/23 10:41:37;;;;;;;15.43;11.73;;;;;;;;;;5022676;28;20297;-76
2023/05/23 10:44:07;;;;;;;16.85;11.13;;;;;;;;;;5021330;28;20296;-75
2023/05/23 10:46:51;;;;;;;17.50;11.60;;;;;;;;;;5023574;28;20217;-76
2023/05/23 10:49:18;;;;;;;17.80;11.45;;;;;;;;;;5022958;28;20197;-76
2023/05/23 10:51:49;;;;;;;17.92;11.90;;;;;;;;;;5020975;28;20276;-76
2023/05/23 10:54:19;;;;;;;15.07;11.35;;;;;;;;;;5021888;28;20661;-76
2023/05/23 10:56:46;;;;;;;20.02;11.07;;;;;;;;;;5023747;28;20193;-76
2023/05/23 10:59:21;;;;;;;16.42;11.05;;;;;;;;;;5021844;28;20627;-77
2023/05/23 11:01:51;;;;;;;19.40;11.98;;;;;;;;;;5021522;28;20224;-76
2023/05/23 11:04:25;;;;;;;17.50;12.20;;;;;;;;;;5021843;28;20231;-76
2023/05/23 11:06:54;;;;;;;18.08;11.55;;;;;;;;;;5021632;28;20296;-76
2023/05/23 11:09:21;;;;;;;17.13;11.02;;;;;;;;;;5021203;28;20197;-76
2023/05/23 11:12:03;;;;;;;15.85;10.70;;;;;;;;;;5021080;28;20276;-75
2023/05/23 11:14:36;;;;;;;15.80;10.60;;;;;;;;;;5023937;28;20569;-75
2023/05/23 11:17:16;;;;;;;16.77;11.55;;;;;;;;;;5020677;28;20201;-76
2023/05/23 11:19:56;;;;;;;14.45;10.20;;;;;;;;;;5022687;28;20291;-75
2023/05/23 11:22:27;;;;;;;17.05;10.73;;;;;;;;;;5023022;28;20582;-76
2023/05/23 11:24:55;;;;;;;14.40;10.00;;;;;;;;;;5021711;28;20243;-76
2023/05/23 11:27:30;;;;;;;13.93;9.93;;;;;;;;;;5020946;28;20279;-76
2023/05/23 11:29:58;;;;;;;17.15;10.18;;;;;;;;;;5022060;28;20292;-76
2023/05/23 11:32:28;;;;;;;17.30;10.32;;;;;;;;;;5022645;28;20224;-77
2023/05/23 11:34:55;;;;;;;16.13;10.15;;;;;;;;;;5025879;28;20238;-76
2023/05/23 11:37:23;;;;;;;11.73;9.02;;;;;;;;;;5020738;28;20239;-77
2023/05/23 11:39:52;;;;;;;13.88;9.75;;;;;;;;;;5020572;28;20197;-76
2023/05/23 11:42:19;;;;;;;12.38;9.30;;;;;;;;;;5023417;28;20295;-76
2023/05/23 11:44:49;;;;;;;11.95;9.40;;;;;;;;;;5023173;28;20228;-75
2023/05/23 11:47:16;;;;;;;14.05;9.30;;;;;;;;;;5022417;28;20748;-76
2023/05/23 11:49:45;;;;;;;13.18;8.85;;;;;;;;;;5019462;28;20307;-76
2023/05/23 11:52:13;;;;;;;11.98;9.57;;;;;;;;;;5012296;28;20243;-76
2023/05/23 11:54:41;;;;;;;17.23;9.73;;;;;;;;;;5013075;28;20642;-77
2023/05/23 11:57:10;;;;;;;14.60;9.05;;;;;;;;;;5016113;28;20211;-77
2023/05/23 11:59:37;;;;;;;11.40;8.10;;;;;;;;;;5032064;28;20283;-76
2023/05/23 12:02:06;;;;;;;12.27;8.25;;;;;;;;;;5032253;28;20250;-75
2023/05/23 12:04:36;;;;;;;9.77;7.70;;;;;;;;;;5031547;28;20201;-77
2023/05/23 12:07:06;;;;;;;9.05;7.45;;;;;;;;;;5032274;28;20565;-77
2023/05/23 12:09:33;;;;;;;9.40;7.43;;;;;;;;;;5031910;28;20231;-76
2023/05/23 12:12:01;;;;;;;11.23;8.10;;;;;;;;;;5032210;28;20201;-77
2023/05/23 12:14:30;;;;;;;11.77;7.80;;;;;;;;;;5031955;28;20209;-76
2023/05/23 12:16:57;;;;;;;12.32;8.23;;;;;;;;;;5031776;28;20236;-76
2023/05/23 12:19:25;;;;;;;11.65;8.52;;;;;;;;;;5031267;28;20236;-76
2023/05/23 12:21:52;;;;;;;12.02;8.00;;;;;;;;;;5032003;28;20296;-76
2023/05/23 12:24:20;;;;;;;12.07;7.97;;;;;;;;;;5031354;28;20651;-76
2023/05/23 12:26:47;;;;;;;11.23;8.50;;;;;;;;;;5031019;28;20783;-77
2023/05/23 12:29:15;;;;;;;13.20;8.60;;;;;;;;;;5031904;28;20284;-77
2023/05/23 12:31:43;;;;;;;10.68;8.48;;;;;;;;;;5031346;28;20200;-77
2023/05/23 12:34:12;;;;;;;13.13;7.97;;;;;;;;;;5030862;28;20359;-76
2023/05/23 12:36:41;;;;;;;11.45;7.75;;;;;;;;;;5031285;28;20228;-76
2023/05/23 12:39:09;;;;;;;10.27;7.43;;;;;;;;;;5031959;28;20196;-77
2023/05/23 12:41:36;;;;;;;10.43;7.82;;;;;;;;;;5031402;28;20295;-77
2023/05/23 12:44:03;;;;;;;10.43;7.72;;;;;;;;;;5031300;28;20197;-77
2023/05/23 12:46:31;;;;;;;13.25;8.25;;;;;;;;;;5034334;28;20211;-79
2023/05/23 12:48:59;;;;;;;10.43;7.40;;;;;;;;;;5051063;28;20214;-81
2023/05/23 12:51:26;;;;;;;10.90;8.38;;;;;;;;;;5050996;28;20195;-80
2023/05/23 12:53:55;;;;;;;9.13;7.60;;;;;;;;;;5050906;28;20290;-80
2023/05/23 12:56:22;;;;;;;10.98;8.50;;;;;;;;;;5050816;28;20242;-79
2023/05/23 12:58:50;;;;;;;10.55;8.55;;;;;;;;;;5050997;28;20291;-80
2023/05/23 13:01:17;;;;;;;9.98;8.00;;;;;;;;;;5050993;28;20670;-78
2023/05/23 13:03:44;;;;;;;9.35;7.78;;;;;;;;;;5051090;28;20287;-80
2023/05/23 13:06:13;;;;;;;10.85;7.72;;;;;;;;;;5050780;28;20204;-79
2023/05/23 13:08:40;;;;;;;10.18;7.78;;;;;;;;;;5051593;28;20387;-80
2023/05/23 13:11:07;;;;;;;10.90;8.10;;;;;;;;;;5051300;28;20282;-79
2023/05/23 13:13:34;;;;;;;9.35;7.43;;;;;;;;;;5050718;28;20245;-80
2023/05/23 13:16:02;;;;;;;10.25;7.32;;;;;;;;;;5030691;28;20223;-80
2023/05/23 13:18:29;;;;;;;12.95;8.02;;;;;;;;;;5031549;28;20255;-79
2023/05/23 13:20:56;;;;;;;10.52;7.45;;;;;;;;;;5031270;28;20198;-79
2023/05/23 13:23:25;;;;;;;10.10;7.65;;;;;;;;;;5031505;28;20228;-80
2023/05/23 13:25:53;;;;;;;10.48;7.55;;;;;;;;;;5031111;28;20196;-80
2023/05/23 13:28:20;;;;;;;12.15;7.72;;;;;;;;;;5031139;28;20315;-80
2023/05/23 13:30:47;;;;;;;8.13;7.20;;;;;;;;;;5031147;28;20199;-80
2023/05/23 13:33:14;;;;;;;8.68;7.03;;;;;;;;;;5030229;28;20759;-80
2023/05/23 13:35:42;;;;;;;12.20;7.22;;;;;;;;;;5031396;28;20315;-80
2023/05/23 13:38:10;;;;;;;8.98;7.05;;;;;;;;;;5031310;28;20571;-80
2023/05/23 13:40:38;;;;;;;11.85;7.03;;;;;;;;;;5036904;28;20200;-80
2023/05/23 13:43:06;;;;;;;8.60;6.53;;;;;;;;;;5044300;28;20199;-81
2023/05/23 13:45:33;;;;;;;10.55;6.95;;;;;;;;;;5031704;28;20224;-80
2023/05/23 13:48:00;;;;;;;8.90;6.82;;;;;;;;;;5051527;28;20227;-80
2023/05/23 13:50:27;;;;;;;9.13;6.47;;;;;;;;;;5034932;28;20227;-79
2023/05/23 13:52:54;;;;;;;9.38;6.72;;;;;;;;;;5044085;28;20199;-79
2023/05/23 13:55:24;;;;;;;10.95;6.57;;;;;;;;;;5042074;28;20207;-80
2023/05/23 13:57:53;;;;;;;10.10;7.00;;;;;;;;;;5045997;28;20260;-79
2023/05/23 14:00:20;;;;;;;10.60;6.82;;;;;;;;;;5041002;28;20288;-80
2023/05/23 14:02:47;;;;;;;8.80;6.18;;;;;;;;;;5046155;28;20234;-80
2023/05/23 14:05:15;;;;;;;9.90;6.25;;;;;;;;;;5019868;28;20235;-80
2023/05/23 14:07:45;;;;;;;14.25;6.30;;;;;;;;;;5014845;28;20197;-79
2023/05/23 14:10:13;;;;;;;7.40;5.47;;;;;;;;;;5014678;28;20197;-79
2023/05/23 14:12:40;;;;;;;8.73;5.35;;;;;;;;;;5014662;28;20622;-79
2023/05/23 14:15:10;;;;;;;8.10;5.13;;;;;;;;;;5040570;28;20291;-78
2023/05/23 14:17:37;;;;;;;7.65;5.03;;;;;;;;;;5054493;28;20243;-79
2023/05/23 14:20:04;;;;;;;7.43;5.22;;;;;;;;;;5054490;28;20235;-79
2023/05/23 14:22:32;;;;;;;10.10;5.25;;;;;;;;;;5054111;28;20231;-79
2023/05/23 14:24:59;;;;;;;8.10;5.13;;;;;;;;;;5054233;28;20357;-80
2023/05/23 14:27:27;;;;;;;8.70;5.38;;;;;;;;;;5054323;28;20219;-80
2023/05/23 14:29:54;;;;;;;10.50;4.90;;;;;;;;;;5046047;28;20303;-78